sensor_id;sensor_type;location;lat;lon;timestamp;temperature;humidity
35325;DHT22;35135;47.510;19.036;2024-02-21T00:01:39;21.00;53.40
35325;DHT22;35135;47.510;19.036;2024-02-21T00:04:05;21.00;53.40
35325;DHT22;35135;47.510;19.036;2024-02-21T00:06:31;21.00;53.30
35325;DHT22;35135;47.510;19.036;2024-02-21T00:08:57;21.00;53.40
35325;DHT22;35135;47.510;19.036;2024-02-21T00:11:22;21.00;53.40
35325;DHT22;35135;47.510;19.036;2024-02-21T00:13:48;21.00;53.40
35325;DHT22;35135;47.510;19.036;2024-02-21T00:16:13;20.90;53.30
35325;DHT22;35135;47.510;19.036;2024-02-21T00:18:41;20.90;53.30
35325;DHT22;35135;47.510;19.036;2024-02-21T00:21:06;20.90;53.30
35325;DHT22;35135;47.510;19.036;2024-02-21T00:23:32;20.90;53.30
35325;DHT22;35135;47.510;19.036;2024-02-21T00:25:58;20.90;53.30
35325;DHT22;35135;47.510;19.036;2024-02-21T00:28:23;20.90;53.30
35325;DHT22;35135;47.510;19.036;2024-02-21T00:30:49;20.90;53.40
35325;DHT22;35135;47.510;19.036;2024-02-21T00:33:16;20.90;53.40
35325;DHT22;35135;47.510;19.036;2024-02-21T00:35:42;20.90;53.40
35325;DHT22;35135;47.510;19.036;2024-02-21T00:38:08;20.90;53.30
35325;DHT22;35135;47.510;19.036;2024-02-21T00:40:34;20.90;53.40
35325;DHT22;35135;47.510;19.036;2024-02-21T00:43:00;20.90;53.40
35325;DHT22;35135;47.510;19.036;2024-02-21T00:45:26;20.90;53.30
35325;DHT22;35135;47.510;19.036;2024-02-21T00:47:52;20.90;53.30
35325;DHT22;35135;47.510;19.036;2024-02-21T00:50:17;20.90;53.30
35325;DHT22;35135;47.510;19.036;2024-02-21T00:52:43;20.90;53.30
35325;DHT22;35135;47.510;19.036;2024-02-21T00:55:09;20.90;53.90
35325;DHT22;35135;47.510;19.036;2024-02-21T00:57:35;20.90;53.30
35325;DHT22;35135;47.510;19.036;2024-02-21T01:00:03;20.90;53.20
35325;DHT22;35135;47.510;19.036;2024-02-21T01:02:29;20.90;53.80
35325;DHT22;35135;47.510;19.036;2024-02-21T01:04:57;20.90;53.20
35325;DHT22;35135;47.510;19.036;2024-02-21T01:07:23;20.90;53.20
35325;DHT22;35135;47.510;19.036;2024-02-21T01:09:48;20.90;53.20
35325;DHT22;35135;47.510;19.036;2024-02-21T01:12:16;20.90;53.20
35325;DHT22;35135;47.510;19.036;2024-02-21T01:14:42;20.90;53.20
35325;DHT22;35135;47.510;19.036;2024-02-21T01:17:08;20.90;53.20
35325;DHT22;35135;47.510;19.036;2024-02-21T01:19:33;20.90;53.20
35325;DHT22;35135;47.510;19.036;2024-02-21T01:21:59;20.90;53.20
35325;DHT22;35135;47.510;19.036;2024-02-21T01:24:25;20.90;53.20
35325;DHT22;35135;47.510;19.036;2024-02-21T01:26:51;20.90;53.20
35325;DHT22;35135;47.510;19.036;2024-02-21T01:29:16;20.90;53.20
35325;DHT22;35135;47.510;19.036;2024-02-21T01:31:42;20.90;53.20
35325;DHT22;35135;47.510;19.036;2024-02-21T01:34:08;20.90;53.20
35325;DHT22;35135;47.510;19.036;2024-02-21T01:36:33;20.90;53.20
35325;DHT22;35135;47.510;19.036;2024-02-21T01:38:59;20.90;53.10
35325;DHT22;35135;47.510;19.036;2024-02-21T01:41:25;20.90;53.20
35325;DHT22;35135;47.510;19.036;2024-02-21T01:43:50;20.90;53.20
35325;DHT22;35135;47.510;19.036;2024-02-21T01:46:16;20.90;53.20
35325;DHT22;35135;47.510;19.036;2024-02-21T01:48:42;20.90;53.10
35325;DHT22;35135;47.510;19.036;2024-02-21T01:51:09;20.90;53.00
35325;DHT22;35135;47.510;19.036;2024-02-21T01:53:37;20.90;53.00
35325;DHT22;35135;47.510;19.036;2024-02-21T01:56:04;20.90;53.00
35325;DHT22;35135;47.510;19.036;2024-02-21T01:58:32;20.90;52.90
35325;DHT22;35135;47.510;19.036;2024-02-21T02:00:59;20.90;52.90
35325;DHT22;35135;47.510;19.036;2024-02-21T02:03:25;20.90;52.90
35325;DHT22;35135;47.510;19.036;2024-02-21T02:05:52;20.90;52.90
35325;DHT22;35135;47.510;19.036;2024-02-21T02:08:19;20.90;52.90
35325;DHT22;35135;47.510;19.036;2024-02-21T02:10:45;20.90;52.90
35325;DHT22;35135;47.510;19.036;2024-02-21T02:13:11;20.90;52.90
35325;DHT22;35135;47.510;19.036;2024-02-21T02:15:45;20.90;52.90
35325;DHT22;35135;47.510;19.036;2024-02-21T02:18:12;20.90;52.80
35325;DHT22;35135;47.510;19.036;2024-02-21T02:20:38;20.80;52.90
35325;DHT22;35135;47.510;19.036;2024-02-21T02:23:11;20.80;52.80
35325;DHT22;35135;47.510;19.036;2024-02-21T02:25:38;20.80;52.80
35325;DHT22;35135;47.510;19.036;2024-02-21T02:28:06;20.80;52.80
35325;DHT22;35135;47.510;19.036;2024-02-21T02:30:40;20.80;52.80
35325;DHT22;35135;47.510;19.036;2024-02-21T02:33:06;20.80;52.70
35325;DHT22;35135;47.510;19.036;2024-02-21T02:35:32;20.80;52.60
35325;DHT22;35135;47.510;19.036;2024-02-21T02:38:00;20.80;52.70
35325;DHT22;35135;47.510;19.036;2024-02-21T02:40:26;20.80;52.60
35325;DHT22;35135;47.510;19.036;2024-02-21T02:42:52;20.80;52.70
35325;DHT22;35135;47.510;19.036;2024-02-21T02:45:21;20.80;52.60
35325;DHT22;35135;47.510;19.036;2024-02-21T02:47:47;20.80;52.70
35325;DHT22;35135;47.510;19.036;2024-02-21T02:50:13;20.80;52.70
35325;DHT22;35135;47.510;19.036;2024-02-21T02:52:39;20.80;52.70
35325;DHT22;35135;47.510;19.036;2024-02-21T02:55:05;20.80;52.70
35325;DHT22;35135;47.510;19.036;2024-02-21T02:57:31;20.80;52.70
35325;DHT22;35135;47.510;19.036;2024-02-21T02:59:57;20.80;52.60
35325;DHT22;35135;47.510;19.036;2024-02-21T03:02:23;20.80;52.70
35325;DHT22;35135;47.510;19.036;2024-02-21T03:04:49;20.80;52.60
35325;DHT22;35135;47.510;19.036;2024-02-21T03:07:15;20.80;52.60
35325;DHT22;35135;47.510;19.036;2024-02-21T03:09:41;20.80;52.60
35325;DHT22;35135;47.510;19.036;2024-02-21T03:12:10;20.80;52.60
35325;DHT22;35135;47.510;19.036;2024-02-21T03:14:36;20.80;52.60
35325;DHT22;35135;47.510;19.036;2024-02-21T03:17:02;20.80;52.50
35325;DHT22;35135;47.510;19.036;2024-02-21T03:19:28;20.80;52.60
35325;DHT22;35135;47.510;19.036;2024-02-21T03:21:54;20.80;52.50
35325;DHT22;35135;47.510;19.036;2024-02-21T03:24:20;20.80;52.50
35325;DHT22;35135;47.510;19.036;2024-02-21T03:26:46;20.70;52.50
35325;DHT22;35135;47.510;19.036;2024-02-21T03:29:16;20.70;52.50
35325;DHT22;35135;47.510;19.036;2024-02-21T03:31:42;20.70;52.40
35325;DHT22;35135;47.510;19.036;2024-02-21T03:34:10;20.70;52.40
35325;DHT22;35135;47.510;19.036;2024-02-21T03:36:36;20.70;52.40
35325;DHT22;35135;47.510;19.036;2024-02-21T03:39:02;20.70;52.40
35325;DHT22;35135;47.510;19.036;2024-02-21T03:41:29;20.70;52.40
35325;DHT22;35135;47.510;19.036;2024-02-21T03:43:54;20.70;52.30
35325;DHT22;35135;47.510;19.036;2024-02-21T03:46:20;20.70;52.30
35325;DHT22;35135;47.510;19.036;2024-02-21T03:48:46;20.70;52.40
35325;DHT22;35135;47.510;19.036;2024-02-21T03:51:11;20.70;52.30
35325;DHT22;35135;47.510;19.036;2024-02-21T03:53:37;20.70;52.30
35325;DHT22;35135;47.510;19.036;2024-02-21T03:56:03;20.70;52.30
35325;DHT22;35135;47.510;19.036;2024-02-21T03:58:32;20.70;52.30
35325;DHT22;35135;47.510;19.036;2024-02-21T04:01:02;20.70;52.30
35325;DHT22;35135;47.510;19.036;2024-02-21T04:03:28;20.70;52.30
35325;DHT22;35135;47.510;19.036;2024-02-21T04:05:53;20.70;52.30
35325;DHT22;35135;47.510;19.036;2024-02-21T04:08:19;20.70;52.30
35325;DHT22;35135;47.510;19.036;2024-02-21T04:10:45;20.70;52.30
35325;DHT22;35135;47.510;19.036;2024-02-21T04:13:10;20.70;52.30
35325;DHT22;35135;47.510;19.036;2024-02-21T04:15:39;20.70;52.30
35325;DHT22;35135;47.510;19.036;2024-02-21T04:18:05;20.70;52.30
35325;DHT22;35135;47.510;19.036;2024-02-21T04:20:31;20.70;52.30
35325;DHT22;35135;47.510;19.036;2024-02-21T04:22:57;20.70;52.30
35325;DHT22;35135;47.510;19.036;2024-02-21T04:25:23;20.70;52.30
35325;DHT22;35135;47.510;19.036;2024-02-21T04:27:48;20.70;52.30
35325;DHT22;35135;47.510;19.036;2024-02-21T04:30:14;20.70;52.30
35325;DHT22;35135;47.510;19.036;2024-02-21T04:32:41;20.70;52.30
35325;DHT22;35135;47.510;19.036;2024-02-21T04:35:07;20.70;52.20
35325;DHT22;35135;47.510;19.036;2024-02-21T04:37:33;20.70;52.30
35325;DHT22;35135;47.510;19.036;2024-02-21T04:39:58;20.60;52.10
35325;DHT22;35135;47.510;19.036;2024-02-21T04:42:24;20.70;52.20
35325;DHT22;35135;47.510;19.036;2024-02-21T04:44:50;20.70;52.70
35325;DHT22;35135;47.510;19.036;2024-02-21T04:47:15;20.70;52.20
35325;DHT22;35135;47.510;19.036;2024-02-21T04:49:41;20.70;52.10
35325;DHT22;35135;47.510;19.036;2024-02-21T04:52:07;20.60;52.10
35325;DHT22;35135;47.510;19.036;2024-02-21T04:54:33;20.60;52.10
35325;DHT22;35135;47.510;19.036;2024-02-21T04:57:00;20.70;52.20
35325;DHT22;35135;47.510;19.036;2024-02-21T04:59:26;20.60;52.10
35325;DHT22;35135;47.510;19.036;2024-02-21T05:01:52;20.60;52.10
35325;DHT22;35135;47.510;19.036;2024-02-21T05:04:17;20.60;52.10
35325;DHT22;35135;47.510;19.036;2024-02-21T05:06:43;20.60;52.00
35325;DHT22;35135;47.510;19.036;2024-02-21T05:09:09;20.60;52.00
35325;DHT22;35135;47.510;19.036;2024-02-21T05:11:38;20.60;52.10
35325;DHT22;35135;47.510;19.036;2024-02-21T05:14:04;20.60;52.10
35325;DHT22;35135;47.510;19.036;2024-02-21T05:16:32;20.60;52.10
35325;DHT22;35135;47.510;19.036;2024-02-21T05:18:58;20.70;52.10
35325;DHT22;35135;47.510;19.036;2024-02-21T05:21:24;20.60;52.00
35325;DHT22;35135;47.510;19.036;2024-02-21T05:23:50;20.60;52.00
35325;DHT22;35135;47.510;19.036;2024-02-21T05:26:23;20.60;52.60
35325;DHT22;35135;47.510;19.036;2024-02-21T05:28:49;20.60;52.00
35325;DHT22;35135;47.510;19.036;2024-02-21T05:31:16;20.60;52.00
35325;DHT22;35135;47.510;19.036;2024-02-21T05:33:43;20.60;52.00
35325;DHT22;35135;47.510;19.036;2024-02-21T05:36:08;20.60;52.00
35325;DHT22;35135;47.510;19.036;2024-02-21T05:38:34;20.60;52.00
35325;DHT22;35135;47.510;19.036;2024-02-21T05:41:01;20.60;52.00
35325;DHT22;35135;47.510;19.036;2024-02-21T05:43:26;20.60;52.00
35325;DHT22;35135;47.510;19.036;2024-02-21T05:45:52;20.60;52.00
35325;DHT22;35135;47.510;19.036;2024-02-21T05:48:17;20.60;52.00
35325;DHT22;35135;47.510;19.036;2024-02-21T05:50:43;20.60;52.00
35325;DHT22;35135;47.510;19.036;2024-02-21T05:53:09;20.60;52.00
35325;DHT22;35135;47.510;19.036;2024-02-21T05:55:35;20.60;52.10
35325;DHT22;35135;47.510;19.036;2024-02-21T05:58:01;20.60;52.10
35325;DHT22;35135;47.510;19.036;2024-02-21T06:00:27;20.60;52.10
35325;DHT22;35135;47.510;19.036;2024-02-21T06:02:53;20.60;52.20
35325;DHT22;35135;47.510;19.036;2024-02-21T06:05:19;20.60;52.30
35325;DHT22;35135;47.510;19.036;2024-02-21T06:07:44;20.70;52.30
35325;DHT22;35135;47.510;19.036;2024-02-21T06:10:10;20.60;52.30
35325;DHT22;35135;47.510;19.036;2024-02-21T06:12:36;20.70;52.50
35325;DHT22;35135;47.510;19.036;2024-02-21T06:15:01;20.70;52.50
35325;DHT22;35135;47.510;19.036;2024-02-21T06:17:28;20.70;52.50
35325;DHT22;35135;47.510;19.036;2024-02-21T06:19:53;20.70;52.30
35325;DHT22;35135;47.510;19.036;2024-02-21T06:22:19;20.70;52.50
35325;DHT22;35135;47.510;19.036;2024-02-21T06:24:45;20.70;52.60
35325;DHT22;35135;47.510;19.036;2024-02-21T06:27:11;20.70;52.60
35325;DHT22;35135;47.510;19.036;2024-02-21T06:29:37;20.70;52.60
35325;DHT22;35135;47.510;19.036;2024-02-21T06:32:02;20.70;52.60
35325;DHT22;35135;47.510;19.036;2024-02-21T06:34:28;20.70;52.70
35325;DHT22;35135;47.510;19.036;2024-02-21T06:36:54;20.70;52.50
35325;DHT22;35135;47.510;19.036;2024-02-21T06:39:20;20.70;52.60
35325;DHT22;35135;47.510;19.036;2024-02-21T06:41:47;20.70;52.50
35325;DHT22;35135;47.510;19.036;2024-02-21T06:44:16;20.70;52.50
35325;DHT22;35135;47.510;19.036;2024-02-21T06:46:41;20.70;52.50
35325;DHT22;35135;47.510;19.036;2024-02-21T06:49:07;20.80;52.60
35325;DHT22;35135;47.510;19.036;2024-02-21T06:51:33;20.80;52.80
35325;DHT22;35135;47.510;19.036;2024-02-21T06:54:00;20.70;53.00
35325;DHT22;35135;47.510;19.036;2024-02-21T06:56:25;20.70;51.90
35325;DHT22;35135;47.510;19.036;2024-02-21T06:58:55;20.70;52.10
35325;DHT22;35135;47.510;19.036;2024-02-21T07:01:21;20.70;52.30
35325;DHT22;35135;47.510;19.036;2024-02-21T07:03:47;20.70;52.20
35325;DHT22;35135;47.510;19.036;2024-02-21T07:06:13;20.70;52.20
35325;DHT22;35135;47.510;19.036;2024-02-21T07:08:38;20.70;52.20
35325;DHT22;35135;47.510;19.036;2024-02-21T07:11:05;20.70;52.20
35325;DHT22;35135;47.510;19.036;2024-02-21T07:13:31;20.70;52.20
35325;DHT22;35135;47.510;19.036;2024-02-21T07:15:57;20.70;52.10
35325;DHT22;35135;47.510;19.036;2024-02-21T07:18:23;20.70;52.00
35325;DHT22;35135;47.510;19.036;2024-02-21T07:20:51;20.70;52.10
35325;DHT22;35135;47.510;19.036;2024-02-21T07:23:16;20.60;51.90
35325;DHT22;35135;47.510;19.036;2024-02-21T07:25:42;20.70;51.90
35325;DHT22;35135;47.510;19.036;2024-02-21T07:28:08;20.70;52.00
35325;DHT22;35135;47.510;19.036;2024-02-21T07:30:33;20.70;51.90
35325;DHT22;35135;47.510;19.036;2024-02-21T07:32:59;20.70;51.90
35325;DHT22;35135;47.510;19.036;2024-02-21T07:35:25;20.80;51.90
35325;DHT22;35135;47.510;19.036;2024-02-21T07:37:50;20.80;51.80
35325;DHT22;35135;47.510;19.036;2024-02-21T07:40:17;20.90;51.70
35325;DHT22;35135;47.510;19.036;2024-02-21T07:42:43;20.90;51.80
35325;DHT22;35135;47.510;19.036;2024-02-21T07:45:09;20.90;51.60
35325;DHT22;35135;47.510;19.036;2024-02-21T07:47:36;20.90;51.60
35325;DHT22;35135;47.510;19.036;2024-02-21T07:50:03;21.00;51.50
35325;DHT22;35135;47.510;19.036;2024-02-21T07:52:28;21.00;51.40
35325;DHT22;35135;47.510;19.036;2024-02-21T07:54:54;21.00;51.40
35325;DHT22;35135;47.510;19.036;2024-02-21T07:57:20;21.00;51.40
35325;DHT22;35135;47.510;19.036;2024-02-21T07:59:45;21.00;51.30
35325;DHT22;35135;47.510;19.036;2024-02-21T08:02:16;21.00;51.20
35325;DHT22;35135;47.510;19.036;2024-02-21T08:04:42;21.00;51.30
35325;DHT22;35135;47.510;19.036;2024-02-21T08:07:08;21.00;51.20
35325;DHT22;35135;47.510;19.036;2024-02-21T08:09:34;21.00;51.10
35325;DHT22;35135;47.510;19.036;2024-02-21T08:12:01;21.10;51.20
35325;DHT22;35135;47.510;19.036;2024-02-21T08:14:27;21.10;51.20
35325;DHT22;35135;47.510;19.036;2024-02-21T08:16:53;21.00;51.00
35325;DHT22;35135;47.510;19.036;2024-02-21T08:19:20;21.00;51.10
35325;DHT22;35135;47.510;19.036;2024-02-21T08:21:46;21.00;51.10
35325;DHT22;35135;47.510;19.036;2024-02-21T08:24:13;21.00;51.20
35325;DHT22;35135;47.510;19.036;2024-02-21T08:26:41;21.00;51.10
35325;DHT22;35135;47.510;19.036;2024-02-21T08:29:06;21.00;51.10
35325;DHT22;35135;47.510;19.036;2024-02-21T08:31:32;21.00;51.10
35325;DHT22;35135;47.510;19.036;2024-02-21T08:34:00;21.00;51.10
35325;DHT22;35135;47.510;19.036;2024-02-21T08:36:35;21.00;51.10
35325;DHT22;35135;47.510;19.036;2024-02-21T08:39:02;21.00;51.10
35325;DHT22;35135;47.510;19.036;2024-02-21T08:41:34;21.00;51.10
35325;DHT22;35135;47.510;19.036;2024-02-21T08:44:00;21.00;51.10
35325;DHT22;35135;47.510;19.036;2024-02-21T08:46:26;20.90;51.10
35325;DHT22;35135;47.510;19.036;2024-02-21T08:48:53;20.90;51.10
35325;DHT22;35135;47.510;19.036;2024-02-21T08:51:19;20.90;51.10
35325;DHT22;35135;47.510;19.036;2024-02-21T08:53:45;20.90;51.20
35325;DHT22;35135;47.510;19.036;2024-02-21T08:56:11;20.90;51.10
35325;DHT22;35135;47.510;19.036;2024-02-21T08:58:38;20.90;51.10
35325;DHT22;35135;47.510;19.036;2024-02-21T09:01:04;20.90;51.20
35325;DHT22;35135;47.510;19.036;2024-02-21T09:03:34;20.90;51.20
35325;DHT22;35135;47.510;19.036;2024-02-21T09:06:02;20.90;51.20
35325;DHT22;35135;47.510;19.036;2024-02-21T09:08:28;20.90;51.20
35325;DHT22;35135;47.510;19.036;2024-02-21T09:10:54;20.90;51.20
35325;DHT22;35135;47.510;19.036;2024-02-21T09:13:19;20.90;51.10
35325;DHT22;35135;47.510;19.036;2024-02-21T09:15:45;20.90;51.10
35325;DHT22;35135;47.510;19.036;2024-02-21T09:18:10;20.90;51.10
35325;DHT22;35135;47.510;19.036;2024-02-21T09:20:36;20.90;51.10
35325;DHT22;35135;47.510;19.036;2024-02-21T09:23:02;20.90;51.10
35325;DHT22;35135;47.510;19.036;2024-02-21T09:25:27;20.90;51.10
35325;DHT22;35135;47.510;19.036;2024-02-21T09:27:54;20.90;51.00
35325;DHT22;35135;47.510;19.036;2024-02-21T09:30:20;20.90;51.00
35325;DHT22;35135;47.510;19.036;2024-02-21T09:32:46;20.90;51.00
35325;DHT22;35135;47.510;19.036;2024-02-21T09:35:12;20.90;51.00
35325;DHT22;35135;47.510;19.036;2024-02-21T09:37:38;20.90;51.00
35325;DHT22;35135;47.510;19.036;2024-02-21T09:40:05;20.90;50.90
35325;DHT22;35135;47.510;19.036;2024-02-21T09:42:37;20.90;51.00
35325;DHT22;35135;47.510;19.036;2024-02-21T09:45:15;20.90;51.00
35325;DHT22;35135;47.510;19.036;2024-02-21T09:48:07;20.90;51.00
35325;DHT22;35135;47.510;19.036;2024-02-21T09:50:40;20.90;51.00
35325;DHT22;35135;47.510;19.036;2024-02-21T09:53:06;20.90;51.00
35325;DHT22;35135;47.510;19.036;2024-02-21T09:55:33;20.90;51.00
35325;DHT22;35135;47.510;19.036;2024-02-21T09:58:01;20.90;51.00
35325;DHT22;35135;47.510;19.036;2024-02-21T10:00:27;20.90;51.00
35325;DHT22;35135;47.510;19.036;2024-02-21T10:02:53;20.90;51.00
35325;DHT22;35135;47.510;19.036;2024-02-21T10:05:19;20.90;51.10
35325;DHT22;35135;47.510;19.036;2024-02-21T10:07:45;20.90;51.10
35325;DHT22;35135;47.510;19.036;2024-02-21T10:10:11;20.90;51.00
35325;DHT22;35135;47.510;19.036;2024-02-21T10:12:37;20.80;50.90
35325;DHT22;35135;47.510;19.036;2024-02-21T10:15:12;20.90;51.00
35325;DHT22;35135;47.510;19.036;2024-02-21T10:17:38;20.90;51.10
35325;DHT22;35135;47.510;19.036;2024-02-21T10:20:10;20.90;51.10
35325;DHT22;35135;47.510;19.036;2024-02-21T10:22:38;20.90;51.10
35325;DHT22;35135;47.510;19.036;2024-02-21T10:25:14;20.90;51.00
35325;DHT22;35135;47.510;19.036;2024-02-21T10:27:40;20.90;51.00
35325;DHT22;35135;47.510;19.036;2024-02-21T10:30:14;20.90;51.00
35325;DHT22;35135;47.510;19.036;2024-02-21T10:32:56;20.90;50.90
35325;DHT22;35135;47.510;19.036;2024-02-21T10:35:31;20.90;51.00
35325;DHT22;35135;47.510;19.036;2024-02-21T10:37:57;20.90;51.60
35325;DHT22;35135;47.510;19.036;2024-02-21T10:40:27;20.90;51.00
35325;DHT22;35135;47.510;19.036;2024-02-21T10:43:00;20.90;50.90
35325;DHT22;35135;47.510;19.036;2024-02-21T10:45:36;20.90;50.90
35325;DHT22;35135;47.510;19.036;2024-02-21T10:48:10;20.90;50.90
35325;DHT22;35135;47.510;19.036;2024-02-21T10:50:56;20.90;50.90
35325;DHT22;35135;47.510;19.036;2024-02-21T10:56:01;20.90;50.90
35325;DHT22;35135;47.510;19.036;2024-02-21T10:58:30;20.90;50.90
35325;DHT22;35135;47.510;19.036;2024-02-21T11:00:57;20.90;50.90
35325;DHT22;35135;47.510;19.036;2024-02-21T11:03:23;20.90;50.90
35325;DHT22;35135;47.510;19.036;2024-02-21T11:05:49;20.90;50.90
35325;DHT22;35135;47.510;19.036;2024-02-21T11:08:15;20.90;50.90
35325;DHT22;35135;47.510;19.036;2024-02-21T11:10:46;20.90;50.80
35325;DHT22;35135;47.510;19.036;2024-02-21T11:13:11;20.90;50.80
35325;DHT22;35135;47.510;19.036;2024-02-21T11:15:37;20.90;50.80
35325;DHT22;35135;47.510;19.036;2024-02-21T11:18:03;20.90;50.70
35325;DHT22;35135;47.510;19.036;2024-02-21T11:20:36;20.90;50.80
35325;DHT22;35135;47.510;19.036;2024-02-21T11:23:02;20.90;50.70
35325;DHT22;35135;47.510;19.036;2024-02-21T11:25:30;20.90;50.70
35325;DHT22;35135;47.510;19.036;2024-02-21T11:28:04;20.90;50.70
35325;DHT22;35135;47.510;19.036;2024-02-21T11:30:31;20.90;50.70
35325;DHT22;35135;47.510;19.036;2024-02-21T11:33:06;20.90;50.70
35325;DHT22;35135;47.510;19.036;2024-02-21T11:35:36;20.90;50.70
35325;DHT22;35135;47.510;19.036;2024-02-21T11:38:12;20.90;50.70
35325;DHT22;35135;47.510;19.036;2024-02-21T11:40:44;20.90;50.70
35325;DHT22;35135;47.510;19.036;2024-02-21T11:43:10;20.90;50.70
35325;DHT22;35135;47.510;19.036;2024-02-21T11:45:36;20.90;50.80
35325;DHT22;35135;47.510;19.036;2024-02-21T11:48:02;20.90;50.70
35325;DHT22;35135;47.510;19.036;2024-02-21T11:50:31;20.90;50.70
35325;DHT22;35135;47.510;19.036;2024-02-21T11:52:57;20.80;50.70
35325;DHT22;35135;47.510;19.036;2024-02-21T11:55:23;20.90;50.70
35325;DHT22;35135;47.510;19.036;2024-02-21T11:57:51;20.80;50.70
35325;DHT22;35135;47.510;19.036;2024-02-21T12:00:18;20.90;50.70
35325;DHT22;35135;47.510;19.036;2024-02-21T12:02:45;20.90;50.70
35325;DHT22;35135;47.510;19.036;2024-02-21T12:05:11;20.80;50.70
35325;DHT22;35135;47.510;19.036;2024-02-21T12:07:37;20.90;50.70
35325;DHT22;35135;47.510;19.036;2024-02-21T12:10:13;20.90;50.70
35325;DHT22;35135;47.510;19.036;2024-02-21T12:12:38;20.90;50.60
35325;DHT22;35135;47.510;19.036;2024-02-21T12:15:05;20.90;50.70
35325;DHT22;35135;47.510;19.036;2024-02-21T12:17:34;20.90;50.60
35325;DHT22;35135;47.510;19.036;2024-02-21T12:20:01;20.90;50.60
35325;DHT22;35135;47.510;19.036;2024-02-21T12:22:29;20.90;50.50
35325;DHT22;35135;47.510;19.036;2024-02-21T12:24:58;20.90;50.50
35325;DHT22;35135;47.510;19.036;2024-02-21T12:27:23;20.90;50.50
35325;DHT22;35135;47.510;19.036;2024-02-21T12:29:50;20.90;50.50
35325;DHT22;35135;47.510;19.036;2024-02-21T12:32:16;20.90;50.50
35325;DHT22;35135;47.510;19.036;2024-02-21T12:34:41;20.90;50.50
35325;DHT22;35135;47.510;19.036;2024-02-21T12:37:07;20.90;50.50
35325;DHT22;35135;47.510;19.036;2024-02-21T12:39:33;20.90;50.50
35325;DHT22;35135;47.510;19.036;2024-02-21T12:41:58;20.90;50.50
35325;DHT22;35135;47.510;19.036;2024-02-21T12:44:24;20.90;50.50
35325;DHT22;35135;47.510;19.036;2024-02-21T12:46:50;20.80;50.50
35325;DHT22;35135;47.510;19.036;2024-02-21T12:49:19;20.80;50.50
35325;DHT22;35135;47.510;19.036;2024-02-21T12:51:44;20.80;50.50
35325;DHT22;35135;47.510;19.036;2024-02-21T12:54:12;20.80;50.50
35325;DHT22;35135;47.510;19.036;2024-02-21T12:56:38;20.80;50.50
35325;DHT22;35135;47.510;19.036;2024-02-21T12:59:05;20.80;50.50
35325;DHT22;35135;47.510;19.036;2024-02-21T13:01:33;20.80;50.50
35325;DHT22;35135;47.510;19.036;2024-02-21T13:03:58;20.80;50.50
35325;DHT22;35135;47.510;19.036;2024-02-21T13:06:26;20.80;50.50
35325;DHT22;35135;47.510;19.036;2024-02-21T13:08:52;20.80;50.40
35325;DHT22;35135;47.510;19.036;2024-02-21T13:11:17;20.80;50.40
35325;DHT22;35135;47.510;19.036;2024-02-21T13:13:43;20.80;50.40
35325;DHT22;35135;47.510;19.036;2024-02-21T13:16:09;20.80;50.40
35325;DHT22;35135;47.510;19.036;2024-02-21T13:18:35;20.80;50.40
35325;DHT22;35135;47.510;19.036;2024-02-21T13:21:04;20.80;50.40
35325;DHT22;35135;47.510;19.036;2024-02-21T13:23:29;20.80;50.40
35325;DHT22;35135;47.510;19.036;2024-02-21T13:25:55;20.80;50.30
35325;DHT22;35135;47.510;19.036;2024-02-21T13:28:21;20.80;50.30
35325;DHT22;35135;47.510;19.036;2024-02-21T13:30:47;20.80;50.30
35325;DHT22;35135;47.510;19.036;2024-02-21T13:33:13;20.80;50.30
35325;DHT22;35135;47.510;19.036;2024-02-21T13:35:39;20.80;50.30
35325;DHT22;35135;47.510;19.036;2024-02-21T13:38:05;20.80;50.30
35325;DHT22;35135;47.510;19.036;2024-02-21T13:40:30;20.80;50.30
35325;DHT22;35135;47.510;19.036;2024-02-21T13:42:56;20.80;50.30
35325;DHT22;35135;47.510;19.036;2024-02-21T13:45:22;20.80;50.20
35325;DHT22;35135;47.510;19.036;2024-02-21T13:47:47;20.80;50.10
35325;DHT22;35135;47.510;19.036;2024-02-21T13:50:14;20.80;50.10
35325;DHT22;35135;47.510;19.036;2024-02-21T13:52:40;20.90;50.20
35325;DHT22;35135;47.510;19.036;2024-02-21T13:55:07;20.80;50.10
35325;DHT22;35135;47.510;19.036;2024-02-21T13:57:38;20.80;50.10
35325;DHT22;35135;47.510;19.036;2024-02-21T14:00:07;20.80;50.20
35325;DHT22;35135;47.510;19.036;2024-02-21T14:02:36;20.80;50.20
35325;DHT22;35135;47.510;19.036;2024-02-21T14:05:03;20.80;50.10
35325;DHT22;35135;47.510;19.036;2024-02-21T14:07:31;20.80;50.10
35325;DHT22;35135;47.510;19.036;2024-02-21T14:09:58;20.80;50.20
35325;DHT22;35135;47.510;19.036;2024-02-21T14:12:24;20.80;50.40
35325;DHT22;35135;47.510;19.036;2024-02-21T14:14:49;20.80;50.20
35325;DHT22;35135;47.510;19.036;2024-02-21T14:17:15;20.80;50.10
35325;DHT22;35135;47.510;19.036;2024-02-21T14:19:41;20.80;50.70
35325;DHT22;35135;47.510;19.036;2024-02-21T14:22:07;20.80;50.20
35325;DHT22;35135;47.510;19.036;2024-02-21T14:24:32;20.80;50.20
35325;DHT22;35135;47.510;19.036;2024-02-21T14:26:58;20.80;50.20
35325;DHT22;35135;47.510;19.036;2024-02-21T14:29:25;20.80;50.30
35325;DHT22;35135;47.510;19.036;2024-02-21T14:31:51;20.80;50.30
35325;DHT22;35135;47.510;19.036;2024-02-21T14:34:16;20.80;50.30
35325;DHT22;35135;47.510;19.036;2024-02-21T14:36:42;20.80;50.40
35325;DHT22;35135;47.510;19.036;2024-02-21T14:39:07;20.80;50.40
35325;DHT22;35135;47.510;19.036;2024-02-21T14:41:33;20.80;50.40
35325;DHT22;35135;47.510;19.036;2024-02-21T14:44:00;20.80;50.40
35325;DHT22;35135;47.510;19.036;2024-02-21T14:46:27;20.80;50.30
35325;DHT22;35135;47.510;19.036;2024-02-21T14:48:55;20.80;50.40
35325;DHT22;35135;47.510;19.036;2024-02-21T14:51:21;20.80;50.40
35325;DHT22;35135;47.510;19.036;2024-02-21T14:53:47;20.80;50.40
35325;DHT22;35135;47.510;19.036;2024-02-21T14:56:14;20.80;50.40
35325;DHT22;35135;47.510;19.036;2024-02-21T14:58:43;20.80;50.40
35325;DHT22;35135;47.510;19.036;2024-02-21T15:01:09;20.80;50.40
35325;DHT22;35135;47.510;19.036;2024-02-21T15:03:35;20.80;50.40
35325;DHT22;35135;47.510;19.036;2024-02-21T15:06:01;20.80;50.50
35325;DHT22;35135;47.510;19.036;2024-02-21T15:08:27;20.80;50.50
35325;DHT22;35135;47.510;19.036;2024-02-21T15:10:54;20.80;50.50
35325;DHT22;35135;47.510;19.036;2024-02-21T15:13:20;20.80;50.50
35325;DHT22;35135;47.510;19.036;2024-02-21T15:15:46;20.80;50.50